Time;durP1;ratioP1;P1;durP2;ratioP2;P2;SDS_P1;SDS_P2;PMS_P1;PMS_P2;Temp;Humidity;BMP_temperature;BMP_pressure;BME280_temperature;BME280_humidity;BME280_pressure;Samples;Min_cycle;Max_cycle;Signal;HPM_P1;HPM_P2
2022/08/28 00:00:01;;;;;;;8.68;2.97;;;15.60;99.90;;;;;;4934837;29;20106;-59
2022/08/28 00:02:27;;;;;;;12.80;3.30;;;15.60;99.90;;;;;;4933540;29;20058;-59
2022/08/28 00:04:52;;;;;;;8.63;3.00;;;15.60;99.90;;;;;;4933667;29;20087;-59
2022/08/28 00:07:18;;;;;;;8.38;2.88;;;15.50;99.90;;;;;;4917793;29;20094;-58
2022/08/28 00:09:44;;;;;;;11.48;3.20;;;15.50;99.90;;;;;;4933619;29;20060;-59
2022/08/28 00:12:11;;;;;;;9.68;3.10;;;15.50;99.90;;;;;;4933753;29;20103;-58
2022/08/28 00:14:37;;;;;;;11.43;3.15;;;15.50;99.90;;;;;;4933101;29;20055;-60
2022/08/28 00:17:03;;;;;;;10.52;3.20;;;15.40;99.90;;;;;;4934681;29;20115;-60
2022/08/28 00:19:29;;;;;;;10.05;2.92;;;15.40;99.90;;;;;;4934457;29;20043;-59
2022/08/28 00:21:55;;;;;;;11.38;3.30;;;15.40;99.90;;;;;;4934795;29;20052;-60
2022/08/28 00:24:21;;;;;;;9.27;2.90;;;15.40;99.90;;;;;;4934459;29;20106;-59
2022/08/28 00:29:31;;;;;;;12.45;3.40;;;15.40;99.90;;;;;;4933467;29;20070;-59
2022/08/28 00:31:57;;;;;;;8.73;3.08;;;15.40;99.90;;;;;;4933487;29;20047;-60
2022/08/28 00:34:24;;;;;;;9.15;3.08;;;15.40;99.90;;;;;;4934306;29;20047;-58
2022/08/28 00:36:49;;;;;;;12.30;3.00;;;15.30;99.90;;;;;;4934758;29;20134;-59
2022/08/28 00:39:15;;;;;;;8.38;2.78;;;15.40;99.90;;;;;;4934665;29;20130;-58
2022/08/28 00:41:43;;;;;;;12.07;3.47;;;15.30;99.90;;;;;;4933267;29;20055;-59
2022/08/28 00:44:14;;;;;;;6.47;2.72;;;15.30;99.90;;;;;;4934246;29;20130;-59
2022/08/28 00:46:43;;;;;;;11.95;3.60;;;15.30;99.90;;;;;;4934020;29;20048;-59
2022/08/28 00:49:10;;;;;;;12.32;3.20;;;15.20;99.90;;;;;;4934733;29;20050;-60
2022/08/28 00:54:23;;;;;;;8.02;2.90;;;15.20;99.90;;;;;;4933433;29;20103;-60
2022/08/28 00:56:50;;;;;;;8.70;3.47;;;15.20;99.90;;;;;;4933593;29;20051;-60
2022/08/28 00:59:21;;;;;;;12.80;3.42;;;15.10;99.90;;;;;;4933368;29;20056;-61
2022/08/28 01:01:48;;;;;;;11.70;3.20;;;15.10;99.90;;;;;;4934533;29;20043;-61
2022/08/28 01:04:17;;;;;;;12.95;4.35;;;15.00;99.90;;;;;;4933305;29;20051;-59
2022/08/28 01:06:45;;;;;;;9.38;3.33;;;15.00;99.90;;;;;;4934079;29;20052;-60
2022/08/28 01:09:11;;;;;;;13.88;3.75;;;15.00;99.90;;;;;;4932960;29;20066;-60
2022/08/28 01:11:40;;;;;;;9.25;3.20;;;14.90;99.90;;;;;;4933007;29;20130;-60
2022/08/28 01:14:07;;;;;;;5.68;2.75;;;14.90;99.90;;;;;;4934542;29;20050;-60
2022/08/28 01:16:34;;;;;;;13.55;3.72;;;14.90;99.90;;;;;;4934020;29;20102;-59
2022/08/28 01:19:04;;;;;;;7.95;3.25;;;14.90;99.90;;;;;;4933559;29;20536;-62
2022/08/28 01:21:41;;;;;;;9.18;2.97;;;14.90;99.90;;;;;;4933619;29;20052;-60
2022/08/28 01:24:13;;;;;;;15.73;3.35;;;14.90;99.90;;;;;;4933927;29;20052;-60
2022/08/28 01:26:40;;;;;;;11.75;3.55;;;14.90;99.90;;;;;;4932353;29;20058;-59
2022/08/28 01:29:07;;;;;;;9.05;3.47;;;14.90;99.90;;;;;;4934206;29;20386;-60
2022/08/28 01:31:35;;;;;;;12.07;3.15;;;14.90;99.90;;;;;;4932987;29;20047;-59
2022/08/28 01:34:02;;;;;;;10.60;3.22;;;14.90;99.90;;;;;;4917251;29;20062;-60
2022/08/28 01:36:30;;;;;;;8.77;2.92;;;14.80;99.90;;;;;;4933763;29;20051;-60
2022/08/28 01:39:18;;;;;;;9.52;2.65;;;14.80;99.90;;;;;;4948724;29;20130;-60
2022/08/28 01:41:46;;;;;;;7.40;3.30;;;14.80;99.90;;;;;;4933307;29;20094;-59
2022/08/28 01:44:14;;;;;;;8.82;3.47;;;14.80;99.90;;;;;;4934113;29;20074;-60
2022/08/28 01:46:41;;;;;;;12.88;3.33;;;14.80;99.90;;;;;;4935271;29;20486;-60
2022/08/28 01:49:08;;;;;;;10.60;2.90;;;14.80;99.90;;;;;;4936217;29;20473;-60
2022/08/28 01:51:34;;;;;;;8.13;2.70;;;14.80;99.90;;;;;;4936826;29;20083;-59
2022/08/28 01:54:00;;;;;;;8.93;3.45;;;14.80;99.90;;;;;;4936402;29;20083;-60
2022/08/28 01:56:26;;;;;;;9.02;3.85;;;14.80;99.90;;;;;;4937020;29;20505;-60
2022/08/28 01:58:51;;;;;;;11.13;3.55;;;14.80;99.90;;;;;;4937150;29;20090;-60
2022/08/28 02:01:20;;;;;;;10.07;3.13;;;14.70;99.90;;;;;;4937301;29;20497;-60
2022/08/28 02:03:47;;;;;;;12.45;3.40;;;14.70;99.90;;;;;;4935856;29;20335;-60
2022/08/28 02:06:14;;;;;;;6.55;2.55;;;14.70;99.90;;;;;;4937247;29;20347;-60
2022/08/28 02:08:40;;;;;;;9.00;2.85;;;14.70;99.90;;;;;;4936655;29;20051;-61
2022/08/28 02:11:07;;;;;;;10.82;3.10;;;14.60;99.90;;;;;;4920429;29;20470;-59
2022/08/28 02:13:37;;;;;;;11.13;3.70;;;14.60;99.90;;;;;;4936217;29;20137;-60
2022/08/28 02:16:05;;;;;;;11.25;3.30;;;14.60;99.90;;;;;;4936745;29;20051;-59
2022/08/28 02:18:30;;;;;;;7.88;2.90;;;14.60;99.90;;;;;;4936556;29;20051;-59
2022/08/28 02:20:56;;;;;;;9.60;3.00;;;14.50;99.90;;;;;;4935812;29;20394;-60
2022/08/28 02:23:22;;;;;;;9.68;3.03;;;14.50;99.90;;;;;;4936748;29;20083;-60
2022/08/28 02:25:48;;;;;;;12.57;3.47;;;14.50;99.90;;;;;;4936381;29;20043;-60
2022/08/28 02:28:13;;;;;;;13.65;2.90;;;14.50;99.90;;;;;;4951349;29;20299;-60
2022/08/28 02:30:39;;;;;;;10.27;2.50;;;14.50;99.90;;;;;;4936263;29;20398;-60
2022/08/28 02:33:05;;;;;;;12.38;3.22;;;14.50;99.90;;;;;;4935082;29;20519;-60
2022/08/28 02:35:31;;;;;;;8.32;2.60;;;14.50;99.90;;;;;;4936492;29;20054;-63
2022/08/28 02:37:57;;;;;;;9.25;2.85;;;14.50;99.90;;;;;;4936688;29;20094;-62
2022/08/28 02:40:24;;;;;;;11.05;3.00;;;14.40;99.90;;;;;;4936785;29;20079;-61
2022/08/28 02:42:51;;;;;;;13.10;3.42;;;14.40;99.90;;;;;;4936305;29;20094;-62
2022/08/28 02:45:17;;;;;;;7.40;2.50;;;14.40;99.90;;;;;;4951395;29;20405;-60
2022/08/28 02:47:44;;;;;;;6.97;2.70;;;14.40;99.90;;;;;;4936115;29;20052;-60
2022/08/28 02:50:14;;;;;;;8.48;2.22;;;14.30;99.90;;;;;;4936294;29;20083;-60
2022/08/28 02:52:42;;;;;;;9.23;2.90;;;14.30;99.90;;;;;;4934477;29;20051;-60
2022/08/28 02:55:11;;;;;;;6.45;2.55;;;14.30;99.90;;;;;;4935127;29;20170;-60
2022/08/28 02:57:37;;;;;;;9.35;2.70;;;14.30;99.90;;;;;;4935032;29;20048;-60
2022/08/28 03:00:12;;;;;;;10.45;2.80;;;14.40;99.90;;;;;;4934183;29;20067;-60
2022/08/28 03:02:39;;;;;;;6.97;2.50;;;14.30;99.90;;;;;;4934484;29;20054;-60
2022/08/28 03:05:06;;;;;;;9.68;2.75;;;14.30;99.90;;;;;;4936132;29;20401;-61
2022/08/28 03:07:31;;;;;;;7.65;2.50;;;14.30;99.90;;;;;;4936017;29;20378;-60
2022/08/28 03:09:57;;;;;;;6.72;2.97;;;14.30;99.90;;;;;;4935671;29;20044;-61
2022/08/28 03:12:23;;;;;;;10.38;2.97;;;14.30;99.90;;;;;;4934565;29;20106;-60
2022/08/28 03:14:50;;;;;;;9.57;2.42;;;14.30;99.90;;;;;;4935752;29;20047;-61
2022/08/28 03:17:16;;;;;;;6.18;2.13;;;14.30;99.90;;;;;;4935977;29;20051;-61
2022/08/28 03:19:42;;;;;;;9.00;2.60;;;14.30;99.90;;;;;;4935448;29;20083;-60
2022/08/28 03:22:07;;;;;;;11.23;2.60;;;14.30;99.90;;;;;;4935474;29;20074;-60
2022/08/28 03:24:33;;;;;;;8.55;2.97;;;14.30;99.90;;;;;;4934726;29;20052;-60
2022/08/28 03:27:00;;;;;;;9.02;2.72;;;14.30;99.90;;;;;;4918576;29;20048;-61
2022/08/28 03:29:26;;;;;;;9.05;2.33;;;14.20;99.90;;;;;;4935741;29;20051;-60
2022/08/28 03:31:53;;;;;;;10.15;2.85;;;14.30;99.90;;;;;;4935198;29;20040;-60
2022/08/28 03:34:18;;;;;;;8.98;2.75;;;14.30;99.90;;;;;;4935300;29;20485;-61
2022/08/28 03:36:44;;;;;;;7.53;2.55;;;14.20;99.90;;;;;;4935077;29;20130;-60
2022/08/28 03:39:10;;;;;;;8.27;2.90;;;14.30;99.90;;;;;;4934264;29;20152;-60
2022/08/28 03:41:35;;;;;;;8.60;2.03;;;14.30;99.90;;;;;;4935506;29;20509;-61
2022/08/28 03:44:02;;;;;;;8.88;2.50;;;14.20;99.90;;;;;;4935025;29;20150;-61
2022/08/28 03:46:33;;;;;;;11.70;2.42;;;14.30;99.90;;;;;;4935484;29;20047;-61
2022/08/28 03:49:01;;;;;;;8.95;3.28;;;14.30;99.90;;;;;;4935051;29;20110;-60
2022/08/28 03:51:30;;;;;;;10.32;2.83;;;14.30;99.90;;;;;;4935201;29;20055;-60
2022/08/28 03:53:57;;;;;;;8.55;2.53;;;14.30;99.90;;;;;;4934994;29;20197;-60
2022/08/28 03:56:25;;;;;;;10.00;2.45;;;14.30;99.90;;;;;;4935206;29;20051;-60
2022/08/28 03:58:53;;;;;;;9.90;2.60;;;14.30;99.90;;;;;;4934792;29;20044;-60
2022/08/28 04:01:20;;;;;;;10.68;2.75;;;14.40;99.90;;;;;;4935019;29;20055;-61
2022/08/28 04:03:46;;;;;;;8.07;2.60;;;14.40;99.90;;;;;;4933377;29;20066;-59
2022/08/28 04:06:12;;;;;;;6.18;2.30;;;14.40;99.90;;;;;;4935065;29;20058;-61
2022/08/28 04:08:39;;;;;;;11.23;2.50;;;14.40;99.90;;;;;;4933798;29;20398;-60
2022/08/28 04:11:05;;;;;;;6.20;2.40;;;14.30;99.90;;;;;;4933630;29;20379;-60
2022/08/28 04:13:31;;;;;;;9.90;3.45;;;14.40;99.90;;;;;;4934837;29;20047;-60
2022/08/28 04:15:57;;;;;;;11.10;2.80;;;14.30;99.90;;;;;;4934243;29;20055;-60
2022/08/28 04:18:23;;;;;;;8.32;2.92;;;14.40;99.90;;;;;;4934829;29;20130;-60
2022/08/28 04:21:04;;;;;;;6.47;2.42;;;14.30;99.90;;;;;;4934055;29;20186;-60
2022/08/28 04:23:31;;;;;;;13.38;2.72;;;14.30;99.90;;;;;;4934846;29;20413;-59
2022/08/28 04:25:57;;;;;;;7.00;2.30;;;14.30;99.90;;;;;;4933265;29;20442;-60
2022/08/28 04:28:24;;;;;;;7.28;2.45;;;14.40;99.90;;;;;;4934725;29;20114;-61
2022/08/28 04:30:55;;;;;;;10.20;2.65;;;14.40;99.90;;;;;;4934299;29;20052;-60
2022/08/28 04:33:23;;;;;;;7.68;2.75;;;14.40;99.90;;;;;;4934656;29;20075;-60
2022/08/28 04:35:48;;;;;;;7.45;2.53;;;14.40;99.90;;;;;;4934127;29;20079;-60
2022/08/28 04:38:14;;;;;;;12.23;2.92;;;14.40;99.90;;;;;;4934668;29;20506;-60
2022/08/28 04:40:40;;;;;;;10.15;2.75;;;14.40;99.90;;;;;;4933045;29;20048;-60
2022/08/28 04:43:07;;;;;;;7.20;2.53;;;14.40;99.90;;;;;;4933000;29;20051;-60
2022/08/28 04:45:37;;;;;;;6.45;2.30;;;14.50;99.90;;;;;;4934334;29;20442;-59
2022/08/28 04:48:04;;;;;;;6.55;2.53;;;14.50;99.90;;;;;;4934144;29;20413;-59
2022/08/28 04:50:30;;;;;;;9.65;2.40;;;14.50;99.90;;;;;;4934443;29;20048;-59
2022/08/28 04:52:55;;;;;;;10.20;2.47;;;14.50;99.90;;;;;;4934155;29;20557;-60
2022/08/28 04:55:21;;;;;;;7.40;2.45;;;14.60;99.90;;;;;;4933300;29;20043;-60
2022/08/28 04:57:47;;;;;;;6.60;2.58;;;14.50;99.90;;;;;;4932920;29;20111;-59
2022/08/28 05:00:13;;;;;;;9.35;2.72;;;14.50;99.90;;;;;;4934144;29;20056;-59
2022/08/28 05:02:38;;;;;;;7.40;2.40;;;14.50;99.90;;;;;;4933319;29;20051;-60
2022/08/28 05:05:04;;;;;;;9.57;3.17;;;14.50;99.90;;;;;;4933827;29;20044;-59
2022/08/28 05:07:30;;;;;;;9.73;2.33;;;14.50;99.90;;;;;;4933831;29;20106;-60
2022/08/28 05:09:56;;;;;;;9.02;2.50;;;14.50;99.90;;;;;;4932834;29;20058;-60
2022/08/28 05:12:22;;;;;;;10.30;2.70;;;14.50;99.90;;;;;;4948868;29;20464;-60
2022/08/28 05:14:49;;;;;;;6.75;2.45;;;14.50;99.90;;;;;;4934314;29;20058;-60
2022/08/28 05:17:15;;;;;;;7.95;2.00;;;14.60;99.90;;;;;;4934020;29;20383;-60
2022/08/28 05:19:42;;;;;;;16.88;2.92;;;14.60;99.90;;;;;;4934201;29;20051;-60
2022/08/28 05:22:08;;;;;;;10.25;2.60;;;14.70;99.90;;;;;;4937725;29;20064;-60
2022/08/28 05:24:38;;;;;;;7.50;2.20;;;14.80;99.90;;;;;;4937989;29;20098;-61
2022/08/28 05:27:05;;;;;;;10.15;2.78;;;14.80;99.90;;;;;;4937370;29;20062;-61
2022/08/28 05:29:31;;;;;;;10.48;2.60;;;14.90;99.90;;;;;;4937667;29;20371;-61
2022/08/28 05:31:57;;;;;;;6.88;2.40;;;14.90;99.90;;;;;;4937160;29;20101;-63
2022/08/28 05:34:23;;;;;;;8.30;2.70;;;15.00;99.90;;;;;;4937857;29;20123;-60
2022/08/28 05:36:49;;;;;;;8.00;2.40;;;15.10;99.90;;;;;;4936436;29;20047;-61
2022/08/28 05:39:16;;;;;;;9.48;2.17;;;15.30;99.90;;;;;;4937120;29;20469;-60
2022/08/28 05:41:44;;;;;;;8.98;2.10;;;15.70;99.90;;;;;;4937540;29;20047;-60
2022/08/28 05:44:11;;;;;;;9.10;2.13;;;16.30;99.90;;;;;;4935930;29;20083;-60
2022/08/28 05:46:41;;;;;;;9.75;2.45;;;17.20;99.90;;;;;;4936252;29;20051;-60
2022/08/28 05:49:07;;;;;;;7.90;2.47;;;18.10;99.90;;;;;;4937205;29;20191;-60
2022/08/28 05:51:34;;;;;;;5.32;1.90;;;18.80;99.90;;;;;;4920562;29;20079;-60
2022/08/28 05:54:01;;;;;;;6.35;2.05;;;19.50;99.90;;;;;;4935701;29;20051;-61
2022/08/28 05:56:30;;;;;;;8.18;2.35;;;20.10;99.90;;;;;;4937352;29;20051;-61
2022/08/28 05:58:56;;;;;;;8.15;2.13;;;20.70;99.90;;;;;;4935336;29;20071;-66
2022/08/28 06:01:28;;;;;;;6.85;2.00;;;21.30;99.70;;;;;;4937127;29;20450;-61
2022/08/28 06:03:56;;;;;;;10.38;3.13;;;21.80;98.80;;;;;;4935938;29;20054;-60
2022/08/28 06:06:23;;;;;;;6.78;1.80;;;22.10;97.60;;;;;;4936044;29;20094;-60
2022/08/28 06:09:00;;;;;;;7.53;2.10;;;22.10;97.20;;;;;;4936996;29;20468;-60
2022/08/28 06:11:27;;;;;;;8.45;2.20;;;21.40;97.70;;;;;;4936605;29;20090;-60
2022/08/28 06:13:53;;;;;;;8.52;2.50;;;20.80;98.60;;;;;;4937080;29;20055;-61
2022/08/28 06:16:19;;;;;;;5.88;2.15;;;20.60;99.50;;;;;;4936822;29;20087;-60
2022/08/28 06:18:45;;;;;;;6.47;2.20;;;21.00;98.70;;;;;;4936908;29;20050;-62
2022/08/28 06:21:12;;;;;;;9.82;2.60;;;21.60;98.20;;;;;;4936604;29;20062;-61
2022/08/28 06:23:38;;;;;;;6.93;2.38;;;22.10;97.30;;;;;;4935520;29;20043;-61
2022/08/28 06:26:05;;;;;;;5.40;2.03;;;22.20;96.60;;;;;;4935270;29;20058;-61
2022/08/28 06:28:31;;;;;;;7.68;1.65;;;21.90;96.70;;;;;;4936724;29;20124;-59
2022/08/28 06:31:00;;;;;;;7.85;2.40;;;21.80;97.40;;;;;;4936616;29;20047;-61
2022/08/28 06:33:25;;;;;;;7.63;1.73;;;21.90;97.30;;;;;;4936679;29;20083;-61
2022/08/28 06:35:53;;;;;;;8.75;2.30;;;22.10;96.70;;;;;;4936420;29;20461;-61
2022/08/28 06:38:21;;;;;;;6.28;2.00;;;22.10;96.10;;;;;;4936432;29;20083;-61
2022/08/28 06:40:50;;;;;;;8.32;2.30;;;22.00;96.30;;;;;;4936069;29;20055;-63
2022/08/28 06:43:17;;;;;;;7.68;2.45;;;22.40;95.90;;;;;;4935949;29;20051;-62
2022/08/28 06:45:45;;;;;;;8.23;2.20;;;22.70;95.70;;;;;;4935868;29;20044;-63
2022/08/28 06:48:16;;;;;;;7.60;2.20;;;23.00;94.90;;;;;;4934426;29;20054;-59
2022/08/28 06:50:46;;;;;;;8.93;2.30;;;23.00;94.70;;;;;;4936420;29;20036;-58
2022/08/28 06:53:14;;;;;;;6.57;2.13;;;22.60;95.20;;;;;;4936014;29;20048;-59
2022/08/28 06:55:40;;;;;;;7.78;1.92;;;22.40;95.40;;;;;;4936403;29;20515;-59
2022/08/28 06:58:06;;;;;;;4.60;1.90;;;22.30;95.50;;;;;;4935902;29;20399;-61
2022/08/28 07:00:34;;;;;;;11.10;2.40;;;22.20;95.80;;;;;;4936103;29;20056;-59
2022/08/28 07:03:01;;;;;;;7.30;2.13;;;22.20;95.60;;;;;;4936348;29;20048;-59
2022/08/28 07:05:26;;;;;;;8.65;2.28;;;21.90;95.90;;;;;;4935621;29;20102;-59
2022/08/28 07:07:53;;;;;;;8.43;2.05;;;21.70;96.30;;;;;;4936076;29;20082;-59
2022/08/28 07:10:19;;;;;;;5.88;2.00;;;21.50;96.70;;;;;;4935701;29;20131;-61
2022/08/28 07:12:45;;;;;;;6.70;2.50;;;21.30;96.80;;;;;;4935805;29;20127;-60
2022/08/28 07:15:11;;;;;;;7.13;1.90;;;21.20;97.00;;;;;;4935595;29;20059;-59
2022/08/28 07:17:37;;;;;;;8.57;2.33;;;21.10;97.10;;;;;;4935013;29;20496;-59
2022/08/28 07:20:06;;;;;;;7.75;2.20;;;20.90;97.30;;;;;;4935881;29;20048;-60
2022/08/28 07:22:32;;;;;;;6.88;1.98;;;20.70;97.00;;;;;;4934848;29;20052;-60
2022/08/28 07:24:57;;;;;;;6.30;2.35;;;20.80;97.40;;;;;;4935600;29;20496;-60
2022/08/28 07:27:26;;;;;;;6.05;2.20;;;20.90;97.20;;;;;;4935432;29;20051;-59
2022/08/28 07:29:52;;;;;;;5.65;1.80;;;20.90;96.60;;;;;;4935678;29;20087;-61
2022/08/28 07:32:20;;;;;;;4.22;1.75;;;20.90;96.50;;;;;;4935429;29;20098;-59
2022/08/28 07:34:46;;;;;;;9.32;2.20;;;20.80;95.60;;;;;;4935553;29;20047;-59
2022/08/28 07:37:12;;;;;;;7.90;2.10;;;20.70;95.70;;;;;;4934187;29;20477;-60
2022/08/28 07:39:38;;;;;;;7.30;2.17;;;20.80;95.80;;;;;;4935333;29;20040;-59
2022/08/28 07:42:04;;;;;;;8.40;2.00;;;20.90;94.90;;;;;;4935377;29;20056;-60
2022/08/28 07:44:48;;;;;;;7.50;2.03;;;21.30;94.80;;;;;;4934531;29;20059;-60
2022/08/28 07:47:16;;;;;;;4.57;2.00;;;22.10;94.50;;;;;;4935399;29;20051;-59
2022/08/28 07:49:42;;;;;;;4.75;1.90;;;23.10;93.50;;;;;;4935343;29;20111;-59
2022/08/28 07:52:09;;;;;;;8.93;2.10;;;23.80;92.40;;;;;;4935267;29;20048;-59
2022/08/28 07:54:35;;;;;;;6.45;2.47;;;23.60;92.10;;;;;;4918403;29;20503;-60
2022/08/28 07:57:03;;;;;;;6.30;2.13;;;23.80;92.20;;;;;;4935119;29;20047;-60
2022/08/28 07:59:29;;;;;;;11.73;2.80;;;23.40;92.70;;;;;;4933613;29;20062;-59
2022/08/28 08:01:55;;;;;;;12.30;2.40;;;22.90;93.30;;;;;;4918055;29;20119;-62
2022/08/28 08:04:22;;;;;;;7.95;2.30;;;22.50;94.00;;;;;;4934681;29;20048;-61
2022/08/28 08:06:49;;;;;;;7.55;2.30;;;23.10;94.60;;;;;;4935065;29;20399;-60
2022/08/28 08:09:17;;;;;;;7.32;2.30;;;24.40;93.50;;;;;;4934888;29;20047;-60
2022/08/28 08:11:43;;;;;;;6.55;2.13;;;25.20;92.10;;;;;;4935059;29;20044;-60
2022/08/28 08:14:10;;;;;;;6.15;1.95;;;25.40;91.10;;;;;;4933915;29;20051;-61
2022/08/28 08:16:39;;;;;;;5.57;2.10;;;25.00;91.40;;;;;;4934774;29;20083;-60
2022/08/28 08:19:08;;;;;;;7.10;2.25;;;25.70;91.50;;;;;;4934947;29;20051;-60
2022/08/28 08:21:34;;;;;;;7.82;2.17;;;26.60;90.40;;;;;;4934530;29;20052;-60
2022/08/28 08:24:00;;;;;;;6.43;2.15;;;25.80;90.00;;;;;;4934793;29;20052;-60
2022/08/28 08:26:27;;;;;;;7.28;2.35;;;25.30;90.70;;;;;;4934075;29;20405;-60
2022/08/28 08:28:53;;;;;;;6.07;2.50;;;25.80;90.80;;;;;;4934588;29;20490;-59
2022/08/28 08:31:31;;;;;;;5.85;2.30;;;26.30;90.60;;;;;;4934360;29;20070;-60
2022/08/28 08:34:02;;;;;;;8.27;2.17;;;26.40;89.30;;;;;;4934850;29;20438;-60
2022/08/28 08:36:31;;;;;;;6.85;2.53;;;25.40;90.30;;;;;;4934376;29;20044;-60
2022/08/28 08:38:58;;;;;;;7.85;2.50;;;24.40;91.00;;;;;;4934685;29;20087;-60
2022/08/28 08:41:46;;;;;;;9.35;2.40;;;24.50;91.70;;;;;;4934484;29;20043;-61
2022/08/28 08:44:39;;;;;;;7.20;2.28;;;25.20;90.30;;;;;;4934673;29;20052;-60
2022/08/28 08:47:17;;;;;;;8.10;2.30;;;25.90;89.60;;;;;;4934297;29;20582;-61
2022/08/28 08:49:56;;;;;;;9.57;2.53;;;26.70;89.40;;;;;;4934595;29;20043;-61
2022/08/28 08:52:33;;;;;;;6.65;1.98;;;27.10;88.80;;;;;;4934441;29;20055;-60
2022/08/28 08:55:11;;;;;;;5.43;2.05;;;27.80;89.20;;;;;;4949803;28;20044;-60
2022/08/28 08:57:37;;;;;;;8.05;1.92;;;28.30;86.70;;;;;;4953018;29;20055;-61
2022/08/28 09:00:09;;;;;;;5.85;2.35;;;28.10;86.60;;;;;;4920347;29;20056;-60
2022/08/28 09:02:46;;;;;;;4.18;2.08;;;28.00;84.60;;;;;;4937977;29;20043;-60
2022/08/28 09:05:18;;;;;;;5.00;2.20;;;28.00;83.80;;;;;;4953072;29;20051;-60
2022/08/28 09:07:55;;;;;;;6.45;2.25;;;28.30;84.20;;;;;;4938439;29;20048;-60
2022/08/28 09:10:21;;;;;;;5.63;2.38;;;28.70;82.70;;;;;;4920921;29;20101;-60
2022/08/28 09:13:14;;;;;;;5.85;2.22;;;28.10;81.90;;;;;;4938152;29;20047;-60
2022/08/28 09:15:44;;;;;;;8.32;2.55;;;28.00;82.50;;;;;;4937638;29;20500;-58
2022/08/28 09:18:20;;;;;;;6.00;2.22;;;27.80;82.30;;;;;;4938206;29;20072;-58
2022/08/28 09:20:54;;;;;;;6.50;1.92;;;27.60;81.60;;;;;;4938190;29;20413;-59
2022/08/28 09:23:22;;;;;;;7.95;2.25;;;27.30;82.70;;;;;;4938098;29;20382;-59
2022/08/28 09:26:01;;;;;;;6.22;2.30;;;27.40;85.00;;;;;;4937869;29;20486;-58
2022/08/28 09:28:34;;;;;;;5.60;2.28;;;27.20;83.20;;;;;;4936582;29;20048;-59
2022/08/28 09:31:03;;;;;;;4.75;2.00;;;26.40;83.40;;;;;;4937718;29;20066;-59
2022/08/28 09:33:30;;;;;;;6.25;2.28;;;25.40;84.50;;;;;;4937632;29;20090;-61
2022/08/28 09:35:56;;;;;;;6.72;2.17;;;24.60;83.70;;;;;;4937256;29;20059;-60
2022/08/28 09:38:24;;;;;;;5.05;2.10;;;24.10;85.00;;;;;;4937769;29;20113;-59
2022/08/28 09:43:50;;;;;;;6.25;2.10;;;24.00;88.00;;;;;;4937263;29;20111;-59
2022/08/28 09:46:28;;;;;;;5.90;2.15;;;24.10;88.00;;;;;;4936047;29;20055;-59
2022/08/28 09:49:08;;;;;;;5.90;2.35;;;24.10;87.10;;;;;;4920557;29;20357;-58
2022/08/28 09:51:37;;;;;;;7.30;2.30;;;23.80;87.90;;;;;;4935740;29;20150;-59
2022/08/28 09:54:31;;;;;;;6.13;2.33;;;23.70;89.30;;;;;;4937126;29;20489;-59
2022/08/28 09:56:57;;;;;;;9.13;2.38;;;23.50;89.40;;;;;;4936658;29;20063;-59
2022/08/28 09:59:25;;;;;;;9.18;2.50;;;23.80;89.90;;;;;;4936878;29;20078;-58
2022/08/28 10:02:32;;;;;;;4.75;1.90;;;23.80;90.00;;;;;;4937296;29;20135;-59
2022/08/28 10:05:09;;;;;;;4.93;2.20;;;23.80;88.60;;;;;;4935674;29;20059;-59
2022/08/28 10:07:47;;;;;;;5.57;2.30;;;23.40;89.70;;;;;;4950897;28;20063;-59
2022/08/28 10:10:27;;;;;;;9.07;2.40;;;23.20;90.40;;;;;;4937128;29;20138;-58
2022/08/28 10:13:02;;;;;;;5.88;2.25;;;23.30;90.40;;;;;;4937203;29;20186;-58
2022/08/28 10:15:56;;;;;;;8.68;2.35;;;23.40;90.10;;;;;;4936487;29;20513;-60
2022/08/28 10:18:40;;;;;;;7.10;2.40;;;23.40;90.10;;;;;;4936122;29;20062;-58
2022/08/28 10:21:09;;;;;;;6.88;2.03;;;23.40;89.90;;;;;;4935841;29;20548;-59
2022/08/28 10:23:54;;;;;;;7.18;2.17;;;23.40;90.00;;;;;;4936677;29;20186;-58
2022/08/28 10:26:32;;;;;;;7.93;2.30;;;23.10;88.40;;;;;;4937114;29;20048;-58
2022/08/28 10:29:09;;;;;;;5.15;2.10;;;22.90;87.40;;;;;;4936708;29;20114;-58
2022/08/28 10:31:41;;;;;;;6.97;2.50;;;22.70;88.50;;;;;;4936649;29;20081;-58
2022/08/28 10:34:16;;;;;;;5.25;2.22;;;22.70;89.50;;;;;;4935874;29;20442;-58
2022/08/28 10:36:52;;;;;;;5.70;2.10;;;23.00;89.60;;;;;;4936460;29;20504;-59
2022/08/28 10:39:47;;;;;;;5.63;2.28;;;22.90;89.00;;;;;;4936516;29;20054;-58
2022/08/28 10:42:17;;;;;;;5.47;2.30;;;22.90;89.60;;;;;;4935666;29;20062;-59
2022/08/28 10:45:13;;;;;;;10.40;2.20;;;23.00;90.00;;;;;;4950953;29;20102;-58
2022/08/28 10:47:45;;;;;;;7.18;2.28;;;23.00;90.40;;;;;;4934476;29;20440;-58
2022/08/28 10:50:42;;;;;;;9.20;2.28;;;23.00;88.80;;;;;;4936356;29;20040;-57
2022/08/28 10:53:14;;;;;;;5.35;2.13;;;22.90;88.90;;;;;;4934921;29;20442;-59
2022/08/28 10:55:52;;;;;;;7.03;2.20;;;22.90;89.40;;;;;;4935222;29;20077;-58
2022/08/28 10:58:20;;;;;;;6.82;2.35;;;22.80;89.60;;;;;;4936322;29;20126;-58
2022/08/28 11:00:46;;;;;;;8.27;2.13;;;22.70;90.10;;;;;;4935541;29;20104;-58
2022/08/28 11:03:17;;;;;;;6.95;2.30;;;22.60;90.40;;;;;;4936177;29;20401;-58
2022/08/28 11:05:55;;;;;;;9.15;2.40;;;22.70;90.50;;;;;;4950864;29;20085;-58
2022/08/28 11:08:29;;;;;;;7.00;2.22;;;22.90;90.30;;;;;;4936269;29;20394;-59
2022/08/28 11:10:57;;;;;;;4.75;1.98;;;22.80;90.00;;;;;;4935779;29;20048;-58
2022/08/28 11:13:58;;;;;;;6.85;2.70;;;22.80;90.10;;;;;;4936056;29;20460;-58
2022/08/28 11:16:27;;;;;;;9.48;2.47;;;22.90;88.70;;;;;;4935928;29;20044;-58
2022/08/28 11:19:17;;;;;;;6.97;2.38;;;23.00;89.10;;;;;;4934613;29;20055;-58
2022/08/28 11:21:46;;;;;;;5.18;2.10;;;22.80;89.00;;;;;;4950091;29;20054;-59
2022/08/28 11:24:29;;;;;;;5.88;2.08;;;22.80;89.00;;;;;;4934635;29;20083;-58
2022/08/28 11:27:23;;;;;;;4.57;2.03;;;22.80;88.90;;;;;;4934125;29;20058;-58
2022/08/28 11:29:59;;;;;;;4.95;2.15;;;22.70;88.70;;;;;;4935534;29;20048;-58
2022/08/28 11:32:30;;;;;;;5.80;1.90;;;22.70;88.10;;;;;;4934210;29;20051;-59
2022/08/28 11:35:40;;;;;;;7.80;2.28;;;22.80;89.20;;;;;;4935135;29;20091;-59
2022/08/28 11:38:06;;;;;;;6.60;2.35;;;22.70;90.00;;;;;;4934390;29;20047;-60
2022/08/28 11:40:32;;;;;;;6.40;2.25;;;22.60;89.10;;;;;;4935479;29;20054;-58
2022/08/28 11:43:19;;;;;;;9.10;2.47;;;22.60;89.30;;;;;;4935314;29;20232;-58
2022/08/28 11:45:45;;;;;;;3.90;1.90;;;22.70;89.00;;;;;;4935325;29;20486;-60
2022/08/28 11:48:33;;;;;;;6.25;2.10;;;22.60;89.10;;;;;;4934517;29;20052;-58
2022/08/28 11:51:21;;;;;;;7.60;2.20;;;22.70;90.10;;;;;;4934271;29;20052;-59
2022/08/28 11:54:02;;;;;;;5.18;2.25;;;22.80;90.30;;;;;;4934994;29;20079;-58
2022/08/28 11:57:06;;;;;;;5.13;2.30;;;22.70;87.60;;;;;;4934308;29;20048;-59
2022/08/28 12:00:01;;;;;;;6.30;2.23;;;22.50;89.80;;;;;;4933987;29;20064;-59
2022/08/28 12:02:38;;;;;;;5.10;2.13;;;22.70;90.40;;;;;;4935617;29;20051;-58
2022/08/28 12:05:30;;;;;;;8.55;2.45;;;22.80;89.90;;;;;;4933897;29;20134;-58
2022/08/28 12:08:01;;;;;;;5.68;2.10;;;23.00;90.10;;;;;;4934562;29;20398;-58
2022/08/28 12:10:28;;;;;;;5.18;2.28;;;22.80;90.50;;;;;;4934927;29;20056;-60
2022/08/28 12:13:08;;;;;;;7.78;2.33;;;22.60;90.70;;;;;;4933799;29;20134;-58
2022/08/28 12:15:34;;;;;;;6.13;2.20;;;22.50;90.90;;;;;;4933848;29;20047;-58
2022/08/28 12:18:14;;;;;;;6.53;2.25;;;22.30;91.30;;;;;;4948639;29;20056;-58
2022/08/28 12:21:03;;;;;;;6.13;2.05;;;22.20;91.50;;;;;;4934718;29;20051;-58
2022/08/28 12:23:34;;;;;;;5.72;2.20;;;22.20;91.40;;;;;;4934419;29;20175;-62
2022/08/28 12:26:23;;;;;;;7.47;2.28;;;22.40;90.90;;;;;;4934003;29;20154;-58
2022/08/28 12:29:20;;;;;;;7.28;2.38;;;22.60;90.60;;;;;;4933648;29;20055;-58
2022/08/28 12:32:23;;;;;;;7.20;2.28;;;22.60;90.70;;;;;;4933775;29;20055;-60
2022/08/28 12:34:49;;;;;;;4.93;1.98;;;22.60;90.60;;;;;;4933599;29;20051;-58
2022/08/28 12:37:35;;;;;;;7.18;2.05;;;22.60;90.30;;;;;;4933648;29;20058;-60
2022/08/28 12:40:14;;;;;;;4.45;1.83;;;22.40;90.70;;;;;;4934307;29;20051;-58
2022/08/28 12:42:55;;;;;;;4.85;1.80;;;22.30;90.50;;;;;;4932542;29;20078;-60
2022/08/28 12:45:48;;;;;;;4.18;1.70;;;22.40;90.80;;;;;;4934018;29;20047;-58
2022/08/28 12:48:25;;;;;;;6.32;1.98;;;22.40;91.10;;;;;;4933767;29;20052;-59
2022/08/28 12:51:04;;;;;;;4.40;1.90;;;22.40;90.90;;;;;;4934130;29;20051;-59
2022/08/28 12:53:49;;;;;;;5.95;1.92;;;22.40;90.90;;;;;;4933326;29;20146;-58
2022/08/28 12:56:18;;;;;;;4.47;1.63;;;22.40;91.10;;;;;;4934250;29;20389;-59
2022/08/28 12:58:45;;;;;;;7.50;1.85;;;22.30;91.30;;;;;;4934376;29;20110;-59
2022/08/28 13:01:20;;;;;;;8.48;2.30;;;22.20;91.60;;;;;;4932422;29;20468;-58
2022/08/28 13:03:47;;;;;;;7.38;1.98;;;22.00;92.20;;;;;;4933460;29;20047;-58
2022/08/28 13:06:20;;;;;;;9.48;1.95;;;22.00;92.50;;;;;;4932846;29;20055;-58
2022/08/28 13:08:47;;;;;;;4.83;2.03;;;22.10;92.60;;;;;;4917450;29;20047;-59
2022/08/28 13:11:18;;;;;;;5.32;1.73;;;22.20;92.30;;;;;;4933985;29;20047;-59